Time;durP1;ratioP1;P1;durP2;ratioP2;P2;SDS_P1;SDS_P2;PMS_P1;PMS_P2;Temp;Humidity;BMP_temperature;BMP_pressure;BME280_temperature;BME280_humidity;BME280_pressure;Samples;Min_cycle;Max_cycle;Signal;HPM_P1;HPM_P2
2022/05/30 00:00:25;;;;;;;7.18;3.40;;;;;;;;;;2073714;28;20223;-51
2022/05/30 00:01:26;;;;;;;7.13;3.88;;;;;;;;;;2073932;28;20177;-54
2022/05/30 00:02:26;;;;;;;10.52;4.38;;;;;;;;;;2073081;28;20176;-54
2022/05/30 00:03:26;;;;;;;10.68;4.00;;;;;;;;;;2065729;28;20176;-52
2022/05/30 00:04:27;;;;;;;9.15;3.85;;;;;;;;;;2066019;28;20193;-56
2022/05/30 00:05:29;;;;;;;8.95;3.72;;;;;;;;;;2073905;28;20638;-51
2022/05/30 00:06:29;;;;;;;9.82;4.40;;;;;;;;;;2073551;28;20273;-57
2022/05/30 00:07:30;;;;;;;5.82;3.33;;;;;;;;;;2073816;28;20180;-50
2022/05/30 00:08:30;;;;;;;10.02;4.47;;;;;;;;;;2073635;28;20169;-54
2022/05/30 00:09:30;;;;;;;10.32;4.43;;;;;;;;;;2073830;28;20264;-54
2022/05/30 00:10:31;;;;;;;7.38;3.53;;;;;;;;;;2073694;28;20669;-51
2022/05/30 00:11:32;;;;;;;6.20;4.05;;;;;;;;;;2073802;28;20673;-53
2022/05/30 00:12:32;;;;;;;11.32;4.30;;;;;;;;;;2074101;28;20165;-58
2022/05/30 00:13:33;;;;;;;9.75;4.72;;;;;;;;;;2073730;28;20708;-54
2022/05/30 00:14:33;;;;;;;9.52;4.30;;;;;;;;;;2072283;28;20204;-51
2022/05/30 00:15:33;;;;;;;8.88;4.25;;;;;;;;;;2073227;28;20292;-51
2022/05/30 00:16:34;;;;;;;10.05;3.90;;;;;;;;;;2073783;28;20650;-50
2022/05/30 00:17:35;;;;;;;8.27;4.50;;;;;;;;;;2073280;28;20172;-52
2022/05/30 00:18:35;;;;;;;10.93;4.22;;;;;;;;;;2073262;28;20192;-53
2022/05/30 00:19:37;;;;;;;8.88;4.10;;;;;;;;;;2073854;28;20205;-54
2022/05/30 00:20:42;;;;;;;6.22;3.95;;;;;;;;;;2076361;28;20558;-54
2022/05/30 00:21:44;;;;;;;9.45;4.13;;;;;;;;;;2075851;28;20169;-50
2022/05/30 00:22:44;;;;;;;14.68;4.82;;;;;;;;;;2067056;28;20177;-53
2022/05/30 00:23:44;;;;;;;11.68;4.47;;;;;;;;;;2065712;28;20177;-52
2022/05/30 00:24:44;;;;;;;10.10;4.43;;;;;;;;;;2072376;28;20184;-54
2022/05/30 00:25:45;;;;;;;10.73;3.92;;;;;;;;;;2073562;28;20188;-51
2022/05/30 00:26:45;;;;;;;6.75;4.00;;;;;;;;;;2073983;28;20421;-52
2022/05/30 00:27:45;;;;;;;10.35;4.45;;;;;;;;;;2073656;28;20642;-52
2022/05/30 00:28:46;;;;;;;7.75;4.32;;;;;;;;;;2073195;28;20185;-53
2022/05/30 00:29:46;;;;;;;10.85;4.18;;;;;;;;;;2064998;28;20903;-51
2022/05/30 00:30:46;;;;;;;6.20;3.55;;;;;;;;;;2072756;28;20669;-52
2022/05/30 00:31:47;;;;;;;9.15;4.03;;;;;;;;;;2073124;28;20235;-49
2022/05/30 00:32:47;;;;;;;9.15;3.95;;;;;;;;;;2073790;28;20195;-56
2022/05/30 00:33:48;;;;;;;7.82;4.05;;;;;;;;;;2073069;28;20245;-54
2022/05/30 00:34:48;;;;;;;9.23;4.10;;;;;;;;;;2071947;28;20185;-55
2022/05/30 00:35:48;;;;;;;8.00;3.78;;;;;;;;;;2073185;28;20208;-52
2022/05/30 00:36:49;;;;;;;12.65;4.40;;;;;;;;;;2073669;28;20173;-51
2022/05/30 00:37:49;;;;;;;9.38;4.07;;;;;;;;;;2073650;28;20268;-56
2022/05/30 00:38:49;;;;;;;8.13;4.80;;;;;;;;;;2073786;28;20535;-55
2022/05/30 00:39:50;;;;;;;8.82;4.13;;;;;;;;;;2073052;28;20172;-53
2022/05/30 00:40:50;;;;;;;10.85;4.35;;;;;;;;;;2072936;28;20205;-53
2022/05/30 00:41:50;;;;;;;9.85;4.18;;;;;;;;;;2073905;28;20161;-49
2022/05/30 00:42:51;;;;;;;12.30;4.00;;;;;;;;;;2073113;28;20187;-52
2022/05/30 00:43:51;;;;;;;7.60;4.43;;;;;;;;;;2064767;28;20166;-50
2022/05/30 00:44:52;;;;;;;9.93;4.35;;;;;;;;;;2072156;28;20193;-52
2022/05/30 00:45:53;;;;;;;10.48;4.03;;;;;;;;;;2073663;28;20172;-55
2022/05/30 00:46:53;;;;;;;7.65;4.60;;;;;;;;;;2073507;28;20598;-51
2022/05/30 00:47:54;;;;;;;6.47;4.28;;;;;;;;;;2065813;28;20168;-52
2022/05/30 00:48:56;;;;;;;11.07;4.50;;;;;;;;;;2064902;28;20557;-55
2022/05/30 00:49:56;;;;;;;9.60;4.13;;;;;;;;;;2069808;28;20268;-54
2022/05/30 00:50:59;;;;;;;8.90;4.40;;;;;;;;;;2072553;28;20173;-54
2022/05/30 00:52:02;;;;;;;8.80;4.30;;;;;;;;;;2073206;28;20251;-51
2022/05/30 00:53:03;;;;;;;9.88;4.18;;;;;;;;;;2073273;28;20193;-54
2022/05/30 00:54:06;;;;;;;11.82;4.28;;;;;;;;;;2071810;28;20559;-51
2022/05/30 00:55:06;;;;;;;8.07;3.97;;;;;;;;;;2065007;28;20177;-53
2022/05/30 00:56:09;;;;;;;12.23;4.35;;;;;;;;;;2064523;28;20175;-55
2022/05/30 00:57:22;;;;;;;8.48;3.97;;;;;;;;;;2064770;28;20182;-53
2022/05/30 00:58:23;;;;;;;6.93;4.18;;;;;;;;;;2073083;28;20157;-53
2022/05/30 00:59:23;;;;;;;12.30;4.53;;;;;;;;;;2073420;28;20262;-53
2022/05/30 01:00:25;;;;;;;9.93;4.38;;;;;;;;;;2072556;28;20315;-54
2022/05/30 01:01:25;;;;;;;7.78;4.18;;;;;;;;;;2064375;28;20173;-53
2022/05/30 01:02:27;;;;;;;9.75;3.95;;;;;;;;;;2064387;28;20173;-55
2022/05/30 01:07:26;;;;;;;5.93;4.03;;;;;;;;;;2072609;28;20160;-52
2022/05/30 01:08:28;;;;;;;8.82;4.00;;;;;;;;;;2073004;28;20643;-52
2022/05/30 01:09:32;;;;;;;7.90;4.55;;;;;;;;;;2064937;28;20169;-52
2022/05/30 01:10:33;;;;;;;13.27;4.38;;;;;;;;;;2057059;28;20257;-51
2022/05/30 01:11:52;;;;;;;12.68;4.68;;;;;;;;;;2064695;28;20243;-55
2022/05/30 01:12:53;;;;;;;8.65;4.85;;;;;;;;;;2073889;28;20169;-54
2022/05/30 01:13:54;;;;;;;7.97;4.30;;;;;;;;;;2064336;28;20237;-54
2022/05/30 01:14:54;;;;;;;18.65;4.80;;;;;;;;;;2063956;28;20252;-52
2022/05/30 01:15:55;;;;;;;10.82;4.47;;;;;;;;;;2056495;28;20189;-51
2022/05/30 01:16:55;;;;;;;8.65;4.88;;;;;;;;;;2048807;28;20171;-51
2022/05/30 01:18:02;;;;;;;11.88;4.15;;;;;;;;;;2056661;28;20174;-53
2022/05/30 01:19:02;;;;;;;6.10;4.10;;;;;;;;;;2073570;28;20255;-53
2022/05/30 01:20:16;;;;;;;6.05;4.03;;;;;;;;;;2072604;28;21442;-52
2022/05/30 01:21:35;;;;;;;10.40;4.30;;;;;;;;;;2066562;28;20712;-51
2022/05/30 01:22:54;;;;;;;8.88;4.78;;;;;;;;;;2067379;28;20201;-52
2022/05/30 01:24:14;;;;;;;8.45;5.10;;;;;;;;;;2076682;28;20711;-52
2022/05/30 01:25:51;;;;;;;7.80;4.30;;;;;;;;;;2077754;28;20169;-52
2022/05/30 01:27:05;;;;;;;7.57;4.15;;;;;;;;;;2065263;28;20222;-50
2022/05/30 01:28:24;;;;;;;9.75;4.43;;;;;;;;;;2058399;28;20387;-51
2022/05/30 01:29:30;;;;;;;11.07;4.47;;;;;;;;;;2067560;28;20669;-52
2022/05/30 01:30:32;;;;;;;10.70;4.85;;;;;;;;;;2072051;28;20222;-52
2022/05/30 01:31:32;;;;;;;11.55;4.53;;;;;;;;;;2064954;28;20181;-52
2022/05/30 01:32:33;;;;;;;8.77;4.72;;;;;;;;;;2072768;28;20169;-53
2022/05/30 01:33:35;;;;;;;8.77;4.32;;;;;;;;;;2072428;28;20222;-50
2022/05/30 01:34:35;;;;;;;11.30;4.68;;;;;;;;;;2063404;28;20205;-59
2022/05/30 01:35:35;;;;;;;8.98;4.65;;;;;;;;;;2072680;28;20172;-54
2022/05/30 01:36:40;;;;;;;13.10;5.07;;;;;;;;;;2072549;28;20227;-52
2022/05/30 01:38:10;;;;;;;9.02;5.03;;;;;;;;;;2064717;28;20257;-53
2022/05/30 01:39:11;;;;;;;10.80;5.07;;;;;;;;;;2070985;28;20551;-52
2022/05/30 01:40:18;;;;;;;10.32;5.53;;;;;;;;;;2065007;28;20634;-52
2022/05/30 01:41:18;;;;;;;6.70;4.68;;;;;;;;;;2072810;28;20669;-53
2022/05/30 01:42:18;;;;;;;14.10;5.00;;;;;;;;;;2073540;28;20181;-54
2022/05/30 01:43:20;;;;;;;14.45;5.68;;;;;;;;;;2073244;28;20169;-55
2022/05/30 01:44:26;;;;;;;9.45;5.25;;;;;;;;;;2065332;28;20213;-54
2022/05/30 01:45:27;;;;;;;10.20;4.50;;;;;;;;;;2065308;28;20174;-51
2022/05/30 01:46:30;;;;;;;8.23;5.50;;;;;;;;;;2065027;28;20213;-54
2022/05/30 01:47:34;;;;;;;14.88;5.80;;;;;;;;;;2065045;28;20531;-51
2022/05/30 01:48:36;;;;;;;10.68;4.78;;;;;;;;;;2072582;28;20161;-53
2022/05/30 01:49:38;;;;;;;10.15;5.25;;;;;;;;;;2064588;28;20317;-52
2022/05/30 01:50:39;;;;;;;9.02;5.25;;;;;;;;;;2064341;28;20218;-52
2022/05/30 01:51:59;;;;;;;7.65;5.03;;;;;;;;;;2064228;28;20264;-50
2022/05/30 01:53:01;;;;;;;10.15;5.45;;;;;;;;;;2064461;28;20561;-52
2022/05/30 01:54:24;;;;;;;8.98;5.53;;;;;;;;;;2034503;29;20226;-53
2022/05/30 01:55:54;;;;;;;13.02;5.40;;;;;;;;;;2056585;28;20236;-54
2022/05/30 01:56:55;;;;;;;9.80;4.20;;;;;;;;;;2064838;28;20292;-53
2022/05/30 01:57:58;;;;;;;13.93;5.05;;;;;;;;;;2057008;28;20257;-54
2022/05/30 01:59:07;;;;;;;10.70;4.78;;;;;;;;;;2057866;28;20726;-51
2022/05/30 02:00:14;;;;;;;14.25;5.28;;;;;;;;;;2065108;28;20162;-52
2022/05/30 02:01:19;;;;;;;10.70;5.60;;;;;;;;;;2073195;28;20169;-53
2022/05/30 02:02:19;;;;;;;7.93;4.75;;;;;;;;;;2066876;28;20673;-54
2022/05/30 02:03:20;;;;;;;9.98;5.10;;;;;;;;;;2074535;28;20165;-55
2022/05/30 02:04:20;;;;;;;11.82;5.63;;;;;;;;;;2073986;28;20216;-55
2022/05/30 02:05:20;;;;;;;10.80;5.28;;;;;;;;;;2066473;28;20205;-55
2022/05/30 02:06:22;;;;;;;7.45;5.40;;;;;;;;;;2074712;28;20172;-58
2022/05/30 02:07:23;;;;;;;6.82;4.68;;;;;;;;;;2066500;28;20670;-56
2022/05/30 02:08:23;;;;;;;14.23;5.65;;;;;;;;;;2066437;28;20256;-57
2022/05/30 02:09:24;;;;;;;10.98;5.53;;;;;;;;;;2074385;28;20173;-54
2022/05/30 02:10:24;;;;;;;13.27;4.70;;;;;;;;;;2066069;28;20165;-48
2022/05/30 02:11:26;;;;;;;9.23;5.28;;;;;;;;;;2066276;28;20268;-55
2022/05/30 02:12:35;;;;;;;9.98;5.30;;;;;;;;;;2067257;28;20243;-55
2022/05/30 02:13:49;;;;;;;8.23;4.82;;;;;;;;;;2074263;28;20229;-54
2022/05/30 02:15:00;;;;;;;12.63;5.75;;;;;;;;;;2074487;28;20243;-49
2022/05/30 02:17:37;;;;;;;8.82;4.53;;;;;;;;;;2054057;28;20179;-52
2022/05/30 02:18:38;;;;;;;11.93;4.55;;;;;;;;;;2049672;29;20203;-53
2022/05/30 02:19:40;;;;;;;7.93;4.70;;;;;;;;;;2058224;28;20184;-48
2022/05/30 02:20:46;;;;;;;7.75;4.90;;;;;;;;;;2066253;28;20186;-50
2022/05/30 02:21:47;;;;;;;12.18;4.93;;;;;;;;;;2066051;28;20170;-54
2022/05/30 02:22:47;;;;;;;8.15;4.15;;;;;;;;;;2065673;28;20659;-51
2022/05/30 02:23:48;;;;;;;8.30;4.57;;;;;;;;;;2073991;28;20181;-53
2022/05/30 02:24:49;;;;;;;11.65;4.78;;;;;;;;;;2072854;28;20569;-51
2022/05/30 02:25:49;;;;;;;9.15;4.75;;;;;;;;;;2073941;28;20169;-50
2022/05/30 02:26:50;;;;;;;8.27;4.15;;;;;;;;;;2074535;28;20673;-51
2022/05/30 02:27:52;;;;;;;14.45;5.20;;;;;;;;;;2074516;28;20165;-56
2022/05/30 02:28:53;;;;;;;10.38;4.63;;;;;;;;;;2073743;28;20581;-50
2022/05/30 02:29:54;;;;;;;6.57;4.75;;;;;;;;;;2065818;28;20235;-52
2022/05/30 02:30:57;;;;;;;7.43;4.63;;;;;;;;;;2073452;28;20173;-50
2022/05/30 02:31:57;;;;;;;9.60;4.15;;;;;;;;;;2065684;28;20204;-54
2022/05/30 02:36:38;;;;;;;13.90;4.50;;;;;;;;;;2065659;28;20173;-50
2022/05/30 02:36:57;;;;;;;5.97;4.25;;;;;;;;;;2073434;28;20299;-53
2022/05/30 02:37:58;;;;;;;8.43;4.55;;;;;;;;;;2073544;28;20165;-49
2022/05/30 02:39:37;;;;;;;7.22;4.25;;;;;;;;;;2057700;28;20194;-56
2022/05/30 02:41:12;;;;;;;8.73;3.85;;;;;;;;;;2064852;28;20189;-48
2022/05/30 02:42:23;;;;;;;10.55;4.38;;;;;;;;;;2057328;28;20678;-52
2022/05/30 02:43:24;;;;;;;7.53;4.70;;;;;;;;;;2057037;28;20170;-51
2022/05/30 02:44:25;;;;;;;6.32;4.68;;;;;;;;;;2056430;28;20285;-50
2022/05/30 02:45:27;;;;;;;7.70;4.00;;;;;;;;;;2062685;28;20268;-55
2022/05/30 02:46:28;;;;;;;10.80;4.50;;;;;;;;;;2065886;28;20682;-53
2022/05/30 02:47:28;;;;;;;6.55;5.35;;;;;;;;;;2065753;28;20229;-53
2022/05/30 02:48:36;;;;;;;8.70;7.05;;;;;;;;;;2066634;28;20261;-53
2022/05/30 02:49:37;;;;;;;8.50;5.53;;;;;;;;;;2065574;28;20189;-50
2022/05/30 02:50:37;;;;;;;10.35;5.07;;;;;;;;;;2073833;28;20173;-52
2022/05/30 02:51:38;;;;;;;9.15;4.80;;;;;;;;;;2073924;28;20180;-52
2022/05/30 02:52:41;;;;;;;11.13;4.82;;;;;;;;;;2066465;28;20178;-55
2022/05/30 02:53:49;;;;;;;8.45;3.85;;;;;;;;;;2069225;28;20173;-50
2022/05/30 02:55:08;;;;;;;8.63;4.15;;;;;;;;;;2076195;28;20220;-56
2022/05/30 02:56:17;;;;;;;6.63;4.05;;;;;;;;;;2074072;28;20204;-52
2022/05/30 02:57:17;;;;;;;7.72;4.28;;;;;;;;;;2073524;28;20557;-52
2022/05/30 02:58:17;;;;;;;13.90;4.53;;;;;;;;;;2065694;28;20170;-48
2022/05/30 02:59:19;;;;;;;10.05;4.18;;;;;;;;;;2073433;28;20208;-53
2022/05/30 03:00:26;;;;;;;7.68;4.03;;;;;;;;;;2065387;28;20256;-52
2022/05/30 03:01:31;;;;;;;9.30;4.22;;;;;;;;;;2058837;28;20186;-51
2022/05/30 03:02:31;;;;;;;10.75;4.25;;;;;;;;;;2072030;28;20216;-52
2022/05/30 03:03:33;;;;;;;15.43;5.50;;;;;;;;;;2065248;28;20720;-52
2022/05/30 03:04:34;;;;;;;7.18;4.32;;;;;;;;;;2064627;28;20201;-52
2022/05/30 03:05:38;;;;;;;6.07;4.47;;;;;;;;;;2065903;28;20169;-57
2022/05/30 03:06:40;;;;;;;9.90;4.30;;;;;;;;;;2073632;28;20169;-55
2022/05/30 03:07:41;;;;;;;9.35;4.63;;;;;;;;;;2073880;28;20184;-51
2022/05/30 03:09:00;;;;;;;6.05;4.03;;;;;;;;;;2073591;28;20211;-53
2022/05/30 03:10:21;;;;;;;12.55;4.88;;;;;;;;;;2068324;28;20220;-54
2022/05/30 03:11:27;;;;;;;6.47;4.93;;;;;;;;;;2065649;28;20169;-53
2022/05/30 03:12:28;;;;;;;9.07;5.03;;;;;;;;;;2072987;28;20189;-52
2022/05/30 03:13:29;;;;;;;10.02;4.60;;;;;;;;;;2074225;28;20169;-52
2022/05/30 03:14:29;;;;;;;9.68;5.20;;;;;;;;;;2072712;28;20241;-55
2022/05/30 03:15:30;;;;;;;7.63;4.85;;;;;;;;;;2073761;28;20240;-53
2022/05/30 03:16:30;;;;;;;9.88;5.10;;;;;;;;;;2073516;28;20165;-50
2022/05/30 03:17:31;;;;;;;12.48;5.80;;;;;;;;;;2073473;28;20177;-52
2022/05/30 03:18:31;;;;;;;12.73;5.65;;;;;;;;;;2073421;28;20176;-55
2022/05/30 03:19:31;;;;;;;7.93;6.07;;;;;;;;;;2073537;28;20173;-53
2022/05/30 03:20:33;;;;;;;8.93;5.47;;;;;;;;;;2073396;28;20204;-54
2022/05/30 03:21:36;;;;;;;11.48;5.57;;;;;;;;;;2073391;28;20207;-50
2022/05/30 03:22:36;;;;;;;9.95;5.18;;;;;;;;;;2064929;28;20174;-48
2022/05/30 03:24:08;;;;;;;8.25;5.65;;;;;;;;;;2047861;28;20162;-52
2022/05/30 03:25:11;;;;;;;9.70;5.20;;;;;;;;;;2058494;28;20650;-50
2022/05/30 03:26:12;;;;;;;7.95;5.93;;;;;;;;;;2057859;28;20166;-53
2022/05/30 03:27:12;;;;;;;9.60;5.40;;;;;;;;;;2065260;28;20627;-56
2022/05/30 03:28:12;;;;;;;12.00;6.45;;;;;;;;;;2073757;28;20181;-54
2022/05/30 03:29:13;;;;;;;7.60;6.05;;;;;;;;;;2073497;28;20240;-50
2022/05/30 03:30:17;;;;;;;8.55;5.50;;;;;;;;;;2073632;28;20183;-51
2022/05/30 03:31:18;;;;;;;6.85;5.35;;;;;;;;;;2065541;28;20181;-54
2022/05/30 03:32:19;;;;;;;7.28;5.63;;;;;;;;;;2065171;28;20646;-50
2022/05/30 03:33:19;;;;;;;10.25;6.30;;;;;;;;;;2073220;28;20173;-51
2022/05/30 03:34:20;;;;;;;10.85;5.60;;;;;;;;;;2072481;28;20205;-50
2022/05/30 03:35:21;;;;;;;9.60;5.60;;;;;;;;;;2065289;28;20174;-50
2022/05/30 03:36:31;;;;;;;8.95;5.22;;;;;;;;;;2073455;28;20552;-50
2022/05/30 03:37:51;;;;;;;11.05;5.93;;;;;;;;;;2073377;28;20605;-57
2022/05/30 03:39:14;;;;;;;9.43;5.50;;;;;;;;;;2043233;29;20196;-52
2022/05/30 03:40:17;;;;;;;8.52;5.90;;;;;;;;;;2071044;28;20185;-49
2022/05/30 03:41:38;;;;;;;10.98;6.03;;;;;;;;;;2040742;29;20188;-51
2022/05/30 03:43:01;;;;;;;9.05;5.35;;;;;;;;;;2073817;28;20184;-50
2022/05/30 03:44:02;;;;;;;10.82;5.47;;;;;;;;;;2072549;28;20646;-56
2022/05/30 03:45:03;;;;;;;9.60;5.47;;;;;;;;;;2065360;28;20172;-52
2022/05/30 03:46:03;;;;;;;10.75;5.47;;;;;;;;;;2065170;28;20162;-53
2022/05/30 03:47:04;;;;;;;7.13;5.03;;;;;;;;;;2073316;28;20176;-53
2022/05/30 03:48:05;;;;;;;10.07;4.82;;;;;;;;;;2073099;28;20685;-51
2022/05/30 03:49:05;;;;;;;9.98;5.45;;;;;;;;;;2073538;28;20172;-52
2022/05/30 03:50:06;;;;;;;10.93;5.40;;;;;;;;;;2065222;28;20664;-52
2022/05/30 03:51:12;;;;;;;8.60;5.35;;;;;;;;;;2073564;28;20223;-53
2022/05/30 03:52:14;;;;;;;14.73;5.57;;;;;;;;;;2065455;28;20211;-55
2022/05/30 03:53:15;;;;;;;7.13;4.68;;;;;;;;;;2065254;28;20180;-52
2022/05/30 03:54:15;;;;;;;9.48;4.70;;;;;;;;;;2056164;28;21916;-55
2022/05/30 03:55:16;;;;;;;8.18;5.40;;;;;;;;;;2073509;28;20165;-54
2022/05/30 03:56:17;;;;;;;14.20;5.13;;;;;;;;;;2073899;28;20657;-52
2022/05/30 03:57:18;;;;;;;8.88;4.85;;;;;;;;;;2076231;28;20212;-53
2022/05/30 03:58:18;;;;;;;6.43;4.55;;;;;;;;;;2076279;28;20199;-52
2022/05/30 03:59:19;;;;;;;8.27;5.03;;;;;;;;;;2073985;28;20185;-58
2022/05/30 04:00:21;;;;;;;10.30;5.28;;;;;;;;;;2074129;28;20173;-55
2022/05/30 04:01:26;;;;;;;9.50;4.45;;;;;;;;;;2074051;28;20161;-54
2022/05/30 04:02:27;;;;;;;9.63;4.97;;;;;;;;;;2066067;28;20276;-55
2022/05/30 04:03:27;;;;;;;10.73;5.13;;;;;;;;;;2074723;28;20172;-54
2022/05/30 04:04:29;;;;;;;12.95;5.30;;;;;;;;;;2073444;28;20201;-55
2022/05/30 04:05:30;;;;;;;10.23;4.88;;;;;;;;;;2066324;28;20241;-55
2022/05/30 04:06:30;;;;;;;13.20;5.90;;;;;;;;;;2058216;28;20178;-55
2022/05/30 04:07:31;;;;;;;6.75;4.07;;;;;;;;;;2065219;28;20201;-50
2022/05/30 04:09:04;;;;;;;6.57;4.18;;;;;;;;;;2073414;28;20161;-52
2022/05/30 04:10:24;;;;;;;9.55;4.93;;;;;;;;;;2074078;28;20830;-52
2022/05/30 04:11:47;;;;;;;7.65;3.95;;;;;;;;;;2073950;28;20173;-52
2022/05/30 04:13:08;;;;;;;7.20;5.07;;;;;;;;;;2073869;28;20201;-52
2022/05/30 04:14:31;;;;;;;9.25;4.43;;;;;;;;;;2072848;28;20188;-54
2022/05/30 04:15:39;;;;;;;8.75;4.25;;;;;;;;;;2065275;28;20212;-52
2022/05/30 04:16:39;;;;;;;9.40;5.60;;;;;;;;;;2058221;28;20237;-50
2022/05/30 04:17:44;;;;;;;9.07;4.18;;;;;;;;;;2064877;28;20216;-51
2022/05/30 04:18:44;;;;;;;6.22;4.68;;;;;;;;;;2057481;28;20166;-51
2022/05/30 04:19:44;;;;;;;11.00;5.10;;;;;;;;;;2065151;28;20185;-54
2022/05/30 04:20:46;;;;;;;12.32;5.28;;;;;;;;;;2065020;28;20592;-54
2022/05/30 04:21:47;;;;;;;11.82;4.80;;;;;;;;;;2074193;28;20181;-53
2022/05/30 04:22:54;;;;;;;12.13;5.93;;;;;;;;;;2073193;28;20723;-54
2022/05/30 04:24:13;;;;;;;10.63;4.95;;;;;;;;;;2073449;28;20161;-54
2022/05/30 04:25:26;;;;;;;13.30;5.15;;;;;;;;;;2073768;28;20177;-54
2022/05/30 04:26:26;;;;;;;11.10;5.10;;;;;;;;;;2073721;28;20179;-55
2022/05/30 04:27:27;;;;;;;11.45;5.28;;;;;;;;;;2073554;28;20300;-54
2022/05/30 04:28:27;;;;;;;9.88;5.75;;;;;;;;;;2065459;28;20166;-54
2022/05/30 04:29:49;;;;;;;12.23;5.03;;;;;;;;;;2073682;28;20700;-57
2022/05/30 04:30:58;;;;;;;10.45;5.07;;;;;;;;;;2074062;28;20157;-54
2022/05/30 04:32:01;;;;;;;10.13;4.95;;;;;;;;;;2073750;28;20184;-55
2022/05/30 04:33:02;;;;;;;11.55;5.35;;;;;;;;;;2065380;28;20193;-50
2022/05/30 04:34:02;;;;;;;11.68;4.53;;;;;;;;;;2064529;28;20554;-55
2022/05/30 04:35:07;;;;;;;5.53;4.50;;;;;;;;;;2065254;28;20229;-51
2022/05/30 04:36:09;;;;;;;7.72;4.68;;;;;;;;;;2057969;28;20170;-57
2022/05/30 04:37:12;;;;;;;10.98;5.50;;;;;;;;;;2058320;28;20574;-53
2022/05/30 04:38:16;;;;;;;8.27;5.10;;;;;;;;;;2065450;28;20185;-57
2022/05/30 04:39:35;;;;;;;12.82;5.07;;;;;;;;;;2073916;28;20564;-53
2022/05/30 04:40:55;;;;;;;7.10;5.25;;;;;;;;;;2075297;28;20209;-52
2022/05/30 04:42:13;;;;;;;9.48;4.78;;;;;;;;;;2074478;28;20169;-52
2022/05/30 04:43:33;;;;;;;10.82;5.03;;;;;;;;;;2074327;28;20215;-53
2022/05/30 04:45:03;;;;;;;8.68;4.47;;;;;;;;;;2050195;29;20187;-54
2022/05/30 04:46:26;;;;;;;7.68;4.47;;;;;;;;;;2060345;28;20186;-55
2022/05/30 04:47:27;;;;;;;9.25;4.50;;;;;;;;;;2079361;28;20640;-54
2022/05/30 04:48:27;;;;;;;9.55;4.80;;;;;;;;;;2082678;28;20230;-53
2022/05/30 04:49:28;;;;;;;8.98;4.90;;;;;;;;;;2075030;28;20189;-55
2022/05/30 04:50:29;;;;;;;9.07;5.00;;;;;;;;;;2075157;28;20641;-54
2022/05/30 04:51:29;;;;;;;7.38;4.88;;;;;;;;;;2074641;28;20173;-54
2022/05/30 04:52:30;;;;;;;13.98;4.72;;;;;;;;;;2074088;28;20165;-56
2022/05/30 04:53:32;;;;;;;8.00;4.50;;;;;;;;;;2074520;28;20177;-53
2022/05/30 04:54:38;;;;;;;8.30;4.85;;;;;;;;;;2065573;28;20209;-49
2022/05/30 04:55:41;;;;;;;7.82;4.38;;;;;;;;;;2074429;28;20199;-54
2022/05/30 04:56:45;;;;;;;8.95;4.07;;;;;;;;;;2073994;28;20259;-54
2022/05/30 04:57:53;;;;;;;8.15;4.22;;;;;;;;;;2074035;28;20163;-51
2022/05/30 04:59:13;;;;;;;10.45;4.63;;;;;;;;;;2073946;28;20161;-54
2022/05/30 05:00:15;;;;;;;14.82;4.63;;;;;;;;;;2073967;28;20600;-57
2022/05/30 05:01:18;;;;;;;9.55;4.30;;;;;;;;;;2066471;28;20181;-55
2022/05/30 05:02:18;;;;;;;10.32;4.90;;;;;;;;;;2065543;28;20188;-53
2022/05/30 05:03:19;;;;;;;9.95;4.18;;;;;;;;;;2066226;28;20174;-54
2022/05/30 05:04:20;;;;;;;9.23;4.78;;;;;;;;;;2073463;28;20239;-54
2022/05/30 05:05:20;;;;;;;11.73;4.43;;;;;;;;;;2066361;28;20688;-55
2022/05/30 05:06:21;;;;;;;8.10;3.58;;;;;;;;;;2066293;28;20173;-57
2022/05/30 05:07:21;;;;;;;8.10;4.38;;;;;;;;;;2067356;28;20193;-53
2022/05/30 05:08:47;;;;;;;8.10;4.00;;;;;;;;;;2064719;28;20174;-57
2022/05/30 05:10:25;;;;;;;8.70;4.25;;;;;;;;;;2068211;28;20161;-53
2022/05/30 05:11:53;;;;;;;7.93;4.20;;;;;;;;;;2078328;28;20180;-55
2022/05/30 05:12:59;;;;;;;6.85;3.97;;;;;;;;;;2084890;28;20160;-50
2022/05/30 05:14:05;;;;;;;11.52;4.95;;;;;;;;;;2084335;28;20176;-54
2022/05/30 05:15:29;;;;;;;8.35;4.20;;;;;;;;;;2051597;29;20242;-53
2022/05/30 05:16:43;;;;;;;9.38;4.03;;;;;;;;;;2084227;28;20168;-51
2022/05/30 05:17:43;;;;;;;9.90;4.38;;;;;;;;;;2083592;28;20179;-51
2022/05/30 05:18:43;;;;;;;8.63;4.07;;;;;;;;;;2082689;28;20207;-51
2022/05/30 05:19:44;;;;;;;7.65;3.70;;;;;;;;;;2074106;28;20578;-53
2022/05/30 05:20:45;;;;;;;8.05;4.32;;;;;;;;;;2069594;28;20198;-51
2022/05/30 05:21:46;;;;;;;8.75;4.03;;;;;;;;;;2065323;28;20200;-52
2022/05/30 05:22:46;;;;;;;7.57;3.55;;;;;;;;;;2073414;28;20173;-51
2022/05/30 05:23:47;;;;;;;8.75;4.05;;;;;;;;;;2073528;28;20255;-54
2022/05/30 05:24:48;;;;;;;5.60;3.70;;;;;;;;;;2065579;28;20681;-54
2022/05/30 05:26:18;;;;;;;7.63;3.80;;;;;;;;;;2066523;28;20618;-55
2022/05/30 05:27:41;;;;;;;5.63;3.78;;;;;;;;;;2070991;28;20193;-55
2022/05/30 05:28:42;;;;;;;6.85;4.07;;;;;;;;;;2073502;28;20662;-54
2022/05/30 05:29:42;;;;;;;8.85;3.42;;;;;;;;;;2065122;28;20256;-53
2022/05/30 05:30:43;;;;;;;5.82;3.70;;;;;;;;;;2063945;28;20213;-53
2022/05/30 05:31:43;;;;;;;7.63;3.75;;;;;;;;;;2064993;28;20701;-57
2022/05/30 05:32:44;;;;;;;6.22;3.55;;;;;;;;;;2064961;28;20367;-51
2022/05/30 05:33:45;;;;;;;8.73;3.55;;;;;;;;;;2065311;28;20169;-53
2022/05/30 05:34:46;;;;;;;6.25;3.60;;;;;;;;;;2064492;28;20197;-56
2022/05/30 05:35:47;;;;;;;9.95;3.58;;;;;;;;;;2075086;28;20192;-57
2022/05/30 05:36:47;;;;;;;6.75;3.42;;;;;;;;;;2075365;28;20263;-57
2022/05/30 05:37:48;;;;;;;8.00;3.85;;;;;;;;;;2075014;28;20204;-52
2022/05/30 05:39:07;;;;;;;4.30;3.55;;;;;;;;;;2074926;28;20606;-52
2022/05/30 05:40:17;;;;;;;10.32;4.20;;;;;;;;;;2074397;28;20193;-54
2022/05/30 05:41:17;;;;;;;5.85;3.20;;;;;;;;;;2066276;28;20178;-52
2022/05/30 05:42:32;;;;;;;7.03;3.35;;;;;;;;;;2067497;28;20176;-55
2022/05/30 05:43:32;;;;;;;4.95;3.38;;;;;;;;;;2066546;28;20651;-53
2022/05/30 05:44:33;;;;;;;4.50;3.50;;;;;;;;;;2063615;28;20201;-53
2022/05/30 05:45:34;;;;;;;7.28;3.65;;;;;;;;;;2062880;28;20289;-53
2022/05/30 05:46:34;;;;;;;6.88;3.83;;;;;;;;;;2074604;28;20165;-54
2022/05/30 05:47:36;;;;;;;4.40;3.10;;;;;;;;;;2091122;28;20172;-57
2022/05/30 05:48:37;;;;;;;7.28;3.72;;;;;;;;;;2082766;28;20176;-55
2022/05/30 05:49:38;;;;;;;5.30;3.60;;;;;;;;;;2074339;28;20211;-50
2022/05/30 05:50:39;;;;;;;6.20;3.60;;;;;;;;;;2074937;28;20680;-54
2022/05/30 05:51:40;;;;;;;5.68;3.53;;;;;;;;;;2083096;28;20188;-51
2022/05/30 05:52:42;;;;;;;8.85;4.18;;;;;;;;;;2069355;28;20176;-54
2022/05/30 05:53:49;;;;;;;6.97;3.40;;;;;;;;;;2065948;28;20166;-55
2022/05/30 05:54:53;;;;;;;5.10;3.03;;;;;;;;;;2074393;28;20306;-52
2022/05/30 05:55:53;;;;;;;5.07;3.03;;;;;;;;;;2071152;28;20181;-52
2022/05/30 05:56:53;;;;;;;5.97;3.30;;;;;;;;;;2062777;28;20173;-51
2022/05/30 05:57:59;;;;;;;4.53;3.30;;;;;;;;;;2070863;28;20161;-55
2022/05/30 05:59:00;;;;;;;7.78;3.50;;;;;;;;;;2068918;28;20724;-54
2022/05/30 06:00:01;;;;;;;5.65;3.22;;;;;;;;;;2073901;28;20596;-55
2022/05/30 06:01:11;;;;;;;6.78;3.67;;;;;;;;;;2073596;28;20290;-51
2022/05/30 06:02:12;;;;;;;5.35;2.80;;;;;;;;;;2072060;28;20176;-52
2022/05/30 06:03:12;;;;;;;5.45;3.38;;;;;;;;;;2068124;28;20948;-51
2022/05/30 06:04:39;;;;;;;5.82;2.95;;;;;;;;;;2085293;22;20233;-53
2022/05/30 06:05:42;;;;;;;4.50;3.80;;;;;;;;;;2076095;28;20206;-52
2022/05/30 06:07:08;;;;;;;6.13;2.63;;;;;;;;;;2075665;28;20213;-51
2022/05/30 06:08:34;;;;;;;5.72;3.45;;;;;;;;;;2073543;28;20168;-52
2022/05/30 06:10:09;;;;;;;5.95;3.05;;;;;;;;;;2044932;29;20586;-57
2022/05/30 06:11:15;;;;;;;7.80;3.60;;;;;;;;;;2066924;28;20177;-55
2022/05/30 06:12:18;;;;;;;5.70;3.25;;;;;;;;;;2078320;28;20182;-56
2022/05/30 06:13:19;;;;;;;4.97;2.83;;;;;;;;;;2076642;28;20621;-51
2022/05/30 06:14:19;;;;;;;5.45;2.72;;;;;;;;;;2070969;28;20192;-52
2022/05/30 06:15:22;;;;;;;6.65;2.58;;;;;;;;;;2069312;28;20686;-54
2022/05/30 06:16:46;;;;;;;4.43;2.80;;;;;;;;;;2065908;28;20189;-53
2022/05/30 06:17:49;;;;;;;3.85;2.35;;;;;;;;;;2065725;28;20686;-52
2022/05/30 06:18:52;;;;;;;4.05;2.40;;;;;;;;;;2065816;28;20177;-55
2022/05/30 06:19:53;;;;;;;3.60;2.45;;;;;;;;;;2057949;28;20178;-53
2022/05/30 06:20:58;;;;;;;3.95;2.33;;;;;;;;;;2065649;28;20209;-56
2022/05/30 06:21:59;;;;;;;5.47;2.50;;;;;;;;;;2065872;28;20173;-54
2022/05/30 06:22:59;;;;;;;5.15;2.45;;;;;;;;;;2073881;28;20228;-53
2022/05/30 06:24:25;;;;;;;2.53;2.30;;;;;;;;;;2077778;28;20192;-54
2022/05/30 06:25:54;;;;;;;2.95;2.15;;;;;;;;;;2074084;28;20223;-55
2022/05/30 06:27:06;;;;;;;2.67;2.17;;;;;;;;;;2067162;28;20231;-57
2022/05/30 06:28:17;;;;;;;4.07;2.22;;;;;;;;;;2067425;28;20603;-54
2022/05/30 06:29:31;;;;;;;4.53;2.78;;;;;;;;;;2067401;28;20172;-55
2022/05/30 06:30:32;;;;;;;6.60;2.60;;;;;;;;;;2065890;28;20635;-53
2022/05/30 06:31:33;;;;;;;2.33;2.13;;;;;;;;;;2065580;28;20181;-53
2022/05/30 06:32:33;;;;;;;3.80;2.40;;;;;;;;;;2073958;28;20262;-54
2022/05/30 06:33:40;;;;;;;4.53;2.50;;;;;;;;;;2073547;28;20247;-54
2022/05/30 06:34:43;;;;;;;4.72;2.22;;;;;;;;;;2065185;28;20297;-57
2022/05/30 06:35:46;;;;;;;4.45;2.28;;;;;;;;;;2065575;28;20621;-52
2022/05/30 06:36:48;;;;;;;6.03;2.63;;;;;;;;;;2066049;28;20177;-57